createdAt,value
2017-10-21T00:01:05.250Z,13.20
2017-10-21T00:03:32.809Z,13.10
2017-10-21T00:06:00.361Z,13.10
2017-10-21T00:08:27.921Z,13.10
2017-10-21T00:10:55.477Z,13.10
2017-10-21T00:13:23.037Z,13.10
2017-10-21T00:15:50.622Z,13.00
2017-10-21T00:18:18.195Z,12.90
2017-10-21T00:20:45.733Z,12.80
2017-10-21T00:23:13.287Z,12.80
2017-10-21T00:25:40.817Z,12.70
2017-10-21T00:28:09.150Z,12.80
2017-10-21T00:30:36.695Z,12.80
2017-10-21T00:33:04.245Z,12.80
2017-10-21T00:35:31.824Z,12.70
2017-10-21T00:37:59.377Z,12.70
2017-10-21T00:40:26.945Z,12.80
2017-10-21T00:42:54.490Z,12.70
2017-10-21T00:45:22.037Z,12.80
2017-10-21T00:47:49.591Z,12.80
2017-10-21T00:50:17.172Z,12.70
2017-10-21T00:52:44.723Z,12.70
2017-10-21T00:55:12.293Z,12.60
2017-10-21T00:57:39.828Z,12.60
2017-10-21T01:00:07.389Z,12.60
2017-10-21T01:02:34.953Z,12.60
2017-10-21T01:05:02.490Z,12.70
2017-10-21T01:07:30.810Z,12.90
2017-10-21T01:09:58.353Z,12.90
2017-10-21T01:12:25.909Z,13.00
2017-10-21T01:14:53.485Z,13.00
2017-10-21T01:17:21.050Z,13.00
2017-10-21T01:19:48.613Z,12.90
2017-10-21T01:22:16.158Z,12.90
2017-10-21T01:24:43.708Z,12.80
2017-10-21T01:27:11.258Z,12.70
2017-10-21T01:29:39.590Z,12.60
2017-10-21T01:32:07.128Z,12.60
2017-10-21T01:34:34.692Z,12.60
2017-10-21T01:37:02.238Z,12.60
2017-10-21T01:39:29.769Z,12.60
2017-10-21T01:41:57.374Z,12.60
2017-10-21T01:44:24.905Z,12.50
2017-10-21T01:46:52.465Z,12.40
2017-10-21T01:49:20.011Z,12.40
2017-10-21T01:51:47.599Z,12.30
2017-10-21T01:54:15.148Z,12.30
2017-10-21T01:56:42.706Z,12.50
2017-10-21T01:59:10.245Z,12.40
2017-10-21T02:01:38.564Z,12.50
2017-10-21T02:04:06.123Z,12.50
2017-10-21T02:06:33.674Z,12.50
2017-10-21T02:09:01.213Z,12.50
2017-10-21T02:11:28.781Z,12.50
2017-10-21T02:13:56.318Z,12.50
2017-10-21T02:16:24.739Z,12.40
2017-10-21T02:18:52.288Z,12.40
2017-10-21T02:21:19.836Z,12.40
2017-10-21T02:23:47.389Z,12.40
2017-10-21T02:26:14.947Z,12.30
2017-10-21T02:28:43.269Z,12.30
2017-10-21T02:31:10.825Z,12.30
2017-10-21T02:33:38.397Z,12.20
2017-10-21T02:36:05.942Z,12.20
2017-10-21T02:38:33.489Z,12.00
2017-10-21T02:41:01.046Z,11.80
2017-10-21T02:43:28.578Z,11.80
2017-10-21T02:45:56.993Z,11.80
2017-10-21T02:48:24.555Z,11.80
2017-10-21T02:50:52.113Z,11.80
2017-10-21T02:53:19.654Z,11.90
2017-10-21T02:55:47.223Z,12.00
2017-10-21T02:58:14.783Z,12.10
2017-10-21T03:00:42.352Z,12.20
2017-10-21T03:03:09.893Z,12.20
2017-10-21T03:05:37.451Z,12.30
2017-10-21T03:08:05.010Z,12.20
2017-10-21T03:10:32.573Z,12.30
2017-10-21T03:13:00.117Z,12.30
2017-10-21T03:15:28.437Z,12.40
2017-10-21T03:17:55.978Z,12.40
2017-10-21T03:20:23.515Z,12.40
2017-10-21T03:22:51.074Z,12.40
2017-10-21T03:25:18.613Z,12.40
2017-10-21T03:27:46.189Z,12.40
2017-10-21T03:30:14.507Z,12.50
2017-10-21T03:32:42.071Z,12.40
2017-10-21T03:35:09.613Z,12.40
2017-10-21T03:37:37.191Z,12.40
2017-10-21T03:40:04.848Z,12.50
2017-10-21T03:42:32.398Z,12.60
2017-10-21T03:44:59.937Z,12.70
2017-10-21T03:47:27.480Z,12.60
2017-10-21T03:49:55.807Z,12.90
2017-10-21T03:52:23.354Z,12.80
2017-10-21T03:54:50.939Z,12.90
2017-10-21T03:57:18.479Z,12.90
2017-10-21T03:59:46.046Z,12.90
2017-10-21T04:02:13.600Z,12.90
2017-10-21T04:04:41.154Z,13.00
2017-10-21T04:07:08.684Z,13.00
2017-10-21T04:09:37.006Z,13.10
2017-10-21T04:12:04.549Z,13.10
2017-10-21T04:14:32.102Z,13.10
2017-10-21T04:16:59.651Z,13.10
2017-10-21T04:19:27.194Z,13.10
2017-10-21T04:21:55.521Z,13.20
2017-10-21T04:24:23.061Z,13.20
2017-10-21T04:26:50.620Z,13.20
2017-10-21T04:29:18.166Z,13.20
2017-10-21T04:31:45.734Z,13.20
2017-10-21T04:34:13.289Z,13.10
2017-10-21T04:36:40.853Z,13.20
2017-10-21T04:39:08.388Z,13.10
2017-10-21T04:41:36.713Z,13.20
2017-10-21T04:44:04.256Z,13.20
2017-10-21T04:46:31.813Z,13.20
2017-10-21T04:48:59.365Z,13.20
2017-10-21T04:51:26.936Z,13.10
2017-10-21T04:53:54.485Z,13.10
2017-10-21T04:56:22.055Z,13.10
2017-10-21T04:58:49.618Z,13.10
2017-10-21T05:01:17.184Z,13.10
2017-10-21T05:03:44.855Z,13.10
2017-10-21T05:06:12.416Z,13.00
2017-10-21T05:08:39.984Z,13.00
2017-10-21T05:11:07.542Z,12.90
2017-10-21T05:13:35.114Z,13.00
2017-10-21T05:16:02.662Z,12.90
2017-10-21T05:18:30.205Z,12.90
2017-10-21T05:20:57.757Z,12.80
2017-10-21T05:23:25.301Z,12.70
2017-10-21T05:25:53.629Z,12.70
2017-10-21T05:28:21.160Z,12.70
2017-10-21T05:30:48.739Z,12.70
2017-10-21T05:33:16.273Z,12.60
2017-10-21T05:35:43.821Z,12.60
2017-10-21T05:38:12.121Z,12.60
2017-10-21T05:40:39.688Z,12.60
2017-10-21T05:43:07.225Z,12.60
2017-10-21T05:45:34.784Z,12.60
2017-10-21T05:48:02.325Z,12.60
2017-10-21T05:50:30.650Z,12.60
2017-10-21T05:52:58.185Z,12.60
2017-10-21T05:55:25.762Z,12.60
2017-10-21T05:57:53.294Z,12.70
2017-10-21T06:00:20.859Z,12.70
2017-10-21T06:02:48.398Z,12.70
2017-10-21T06:05:16.765Z,12.60
2017-10-21T06:07:45.106Z,12.70
2017-10-21T06:10:12.669Z,12.70
2017-10-21T06:12:40.206Z,12.70
2017-10-21T06:15:07.764Z,12.90
2017-10-21T06:17:36.022Z,12.90
2017-10-21T06:20:04.341Z,13.10
2017-10-21T06:22:31.901Z,13.00
2017-10-21T06:24:59.433Z,13.10
2017-10-21T06:27:27.005Z,13.20
2017-10-21T06:29:54.542Z,13.30
2017-10-21T06:32:22.113Z,13.40
2017-10-21T06:34:49.655Z,13.50
2017-10-21T06:37:17.988Z,13.80
2017-10-21T06:39:45.566Z,13.80
2017-10-21T06:42:13.130Z,13.80
2017-10-21T06:44:41.450Z,13.90
2017-10-21T06:47:09.010Z,13.90
2017-10-21T06:49:36.548Z,13.90
2017-10-21T06:52:04.881Z,14.40
2017-10-21T06:54:32.426Z,14.40
2017-10-21T06:56:59.983Z,14.40
2017-10-21T06:59:27.534Z,14.40
2017-10-21T07:01:55.072Z,14.50
2017-10-21T07:04:22.644Z,14.60
2017-10-21T07:06:50.190Z,14.40
2017-10-21T07:09:17.908Z,14.50
2017-10-21T07:11:46.061Z,14.60
2017-10-21T07:14:13.613Z,14.60
2017-10-21T07:16:41.141Z,14.50
2017-10-21T07:19:09.437Z,14.50
2017-10-21T07:21:37.006Z,14.50
2017-10-21T07:24:04.660Z,14.50
2017-10-21T07:26:32.234Z,14.50
2017-10-21T07:29:00.237Z,14.60
2017-10-21T07:31:28.391Z,14.80
2017-10-21T07:33:55.974Z,14.70
2017-10-21T07:36:24.293Z,15.20
2017-10-21T07:38:51.829Z,15.20
2017-10-21T07:41:19.386Z,15.50
2017-10-21T07:43:46.919Z,15.40
2017-10-21T07:46:14.479Z,15.80
2017-10-21T07:48:42.404Z,15.80
2017-10-21T07:51:10.576Z,16.30
2017-10-21T07:53:38.549Z,17.00
2017-10-21T07:56:06.913Z,18.20
2017-10-21T07:58:34.452Z,18.10
2017-10-21T08:01:02.751Z,20.00
2017-10-21T08:03:30.320Z,20.00
2017-10-21T08:05:57.862Z,21.20
2017-10-21T08:08:25.439Z,21.90
2017-10-21T08:10:52.979Z,22.50
2017-10-21T08:13:20.525Z,21.40
2017-10-21T08:15:48.838Z,21.10
2017-10-21T08:18:16.359Z,21.10
2017-10-21T08:20:44.692Z,18.80
2017-10-21T08:23:12.252Z,18.80
2017-10-21T08:25:40.609Z,17.50
2017-10-21T08:28:08.140Z,17.40
2017-10-21T08:30:35.687Z,17.40
2017-10-21T08:33:03.223Z,17.70
2017-10-21T08:35:31.550Z,18.20
2017-10-21T08:37:59.105Z,18.20
2017-10-21T08:40:26.680Z,19.40
2017-10-21T08:42:54.229Z,19.50
2017-10-21T08:45:21.784Z,19.90
2017-10-21T08:47:49.325Z,21.60
2017-10-21T08:50:16.850Z,22.10
2017-10-21T08:52:45.210Z,20.20
2017-10-21T08:55:12.745Z,20.10
2017-10-21T08:57:40.318Z,21.30
2017-10-21T09:00:07.833Z,22.30
2017-10-21T09:02:35.377Z,23.30
2017-10-21T09:05:03.665Z,21.10
2017-10-21T09:07:31.208Z,21.10
2017-10-21T09:09:59.496Z,19.30
2017-10-21T09:12:27.805Z,18.60
2017-10-21T09:14:55.333Z,18.60
2017-10-21T09:17:22.905Z,18.50
2017-10-21T09:19:50.454Z,18.80
2017-10-21T09:22:18.010Z,18.70
2017-10-21T09:24:45.555Z,19.20
2017-10-21T09:27:13.854Z,19.20
2017-10-21T09:29:41.408Z,19.20
2017-10-21T09:32:09.702Z,18.60
2017-10-21T09:34:37.253Z,18.50
2017-10-21T09:37:04.787Z,19.00
2017-10-21T09:39:33.134Z,19.40
2017-10-21T09:42:00.682Z,19.40
2017-10-21T09:44:28.206Z,19.50
2017-10-21T09:46:56.534Z,21.10
2017-10-21T09:49:24.082Z,21.10
2017-10-21T09:51:51.603Z,22.20
2017-10-21T09:54:19.141Z,22.40
2017-10-21T09:56:47.486Z,23.30
2017-10-21T09:59:15.126Z,23.30
2017-10-21T10:01:42.664Z,24.30
2017-10-21T10:04:10.264Z,22.90
2017-10-21T10:06:37.834Z,23.50
2017-10-21T10:09:05.358Z,23.70
2017-10-21T10:11:32.913Z,23.60
2017-10-21T10:14:00.455Z,22.60
2017-10-21T10:16:28.775Z,22.30
2017-10-21T10:18:56.306Z,22.30
2017-10-21T10:21:23.845Z,21.90
2017-10-21T10:23:52.156Z,20.00
2017-10-21T10:26:19.684Z,20.00
2017-10-21T10:28:48.005Z,19.90
2017-10-21T10:31:15.560Z,19.90
2017-10-21T10:33:43.108Z,20.10
2017-10-21T10:36:10.634Z,20.00
2017-10-21T10:38:38.242Z,19.80
2017-10-21T10:41:05.773Z,20.00
2017-10-21T10:43:33.327Z,20.40
2017-10-21T10:46:01.632Z,19.80
2017-10-21T10:48:29.206Z,19.80
2017-10-21T10:50:56.764Z,19.60
2017-10-21T10:53:24.297Z,19.30
2017-10-21T10:55:53.466Z,19.00
2017-10-21T10:58:21.770Z,19.00
2017-10-21T11:00:49.325Z,18.90
2017-10-21T11:03:17.631Z,18.70
2017-10-21T11:05:45.175Z,18.70
2017-10-21T11:08:12.725Z,18.70
2017-10-21T11:10:40.269Z,18.60
2017-10-21T11:13:08.595Z,18.90
2017-10-21T11:15:36.144Z,18.80
2017-10-21T11:18:03.725Z,19.00
2017-10-21T11:20:31.309Z,19.10
2017-10-21T11:22:59.618Z,18.90
2017-10-21T11:25:27.936Z,18.70
2017-10-21T11:27:55.469Z,18.80
2017-10-21T11:30:23.028Z,18.90
2017-10-21T11:32:50.555Z,19.00
2017-10-21T11:35:18.893Z,19.00
2017-10-21T11:37:46.427Z,19.00
2017-10-21T11:40:14.005Z,19.00
2017-10-21T11:42:41.545Z,18.90
2017-10-21T11:45:09.115Z,18.80
2017-10-21T11:47:36.678Z,18.80
2017-10-21T11:50:04.214Z,18.70
2017-10-21T11:52:31.769Z,18.70
2017-10-21T11:55:00.055Z,18.60
2017-10-21T11:57:27.606Z,18.60
2017-10-21T11:59:55.145Z,18.60
2017-10-21T12:02:22.701Z,18.70
2017-10-21T12:04:50.993Z,18.60
2017-10-21T12:07:19.306Z,18.80
2017-10-21T12:09:46.846Z,18.80
2017-10-21T12:12:14.397Z,18.70
2017-10-21T12:14:42.693Z,18.70
2017-10-21T12:17:10.268Z,18.70
2017-10-21T12:19:37.830Z,18.80
2017-10-21T12:22:05.384Z,18.80
2017-10-21T12:24:32.967Z,18.80
2017-10-21T12:27:00.492Z,19.00
2017-10-21T12:29:28.069Z,19.10
2017-10-21T12:31:55.597Z,19.00
2017-10-21T12:34:23.145Z,19.00
2017-10-21T12:36:51.597Z,19.20
2017-10-21T12:39:19.285Z,19.20
2017-10-21T12:41:47.586Z,19.30
2017-10-21T12:44:15.117Z,19.30
2017-10-21T12:46:43.439Z,19.50
2017-10-21T12:49:10.989Z,19.50
2017-10-21T12:51:38.540Z,19.60
2017-10-21T12:54:06.096Z,19.70
2017-10-21T12:56:33.622Z,19.70
2017-10-21T12:59:01.957Z,19.90
2017-10-21T13:01:29.778Z,19.90
2017-10-21T13:03:58.076Z,19.90
2017-10-21T13:06:25.633Z,19.90
2017-10-21T13:08:53.949Z,19.80
2017-10-21T13:11:21.510Z,19.80
2017-10-21T13:13:49.034Z,19.60
2017-10-21T13:16:16.594Z,19.50
2017-10-21T13:18:44.133Z,19.30
2017-10-21T13:21:12.460Z,19.20
2017-10-21T13:23:40.014Z,19.20
2017-10-21T13:26:07.567Z,19.20
2017-10-21T13:28:35.133Z,19.10
2017-10-21T13:31:02.677Z,19.10
2017-10-21T13:33:30.252Z,19.10
2017-10-21T13:35:57.789Z,19.10
2017-10-21T13:38:25.321Z,19.00
2017-10-21T13:40:52.877Z,19.10
2017-10-21T13:43:20.442Z,19.10
2017-10-21T13:45:48.784Z,19.10
2017-10-21T13:48:16.325Z,19.00
2017-10-21T13:50:43.871Z,19.00
2017-10-21T13:53:11.417Z,19.00
2017-10-21T13:55:39.715Z,19.20
2017-10-21T13:58:07.264Z,19.10
2017-10-21T14:00:38.253Z,19.30
2017-10-21T14:03:05.861Z,19.40
2017-10-21T14:05:34.164Z,19.20
2017-10-21T14:08:01.740Z,19.20
2017-10-21T14:10:29.305Z,19.30
2017-10-21T14:12:56.864Z,19.30
2017-10-21T14:15:24.403Z,19.40
2017-10-21T14:17:51.952Z,19.30
2017-10-21T14:20:19.481Z,19.30
2017-10-21T14:22:47.778Z,19.30
2017-10-21T14:25:15.330Z,19.30
2017-10-21T14:27:43.625Z,19.20
2017-10-21T14:30:11.196Z,19.20
2017-10-21T14:32:38.721Z,19.30
2017-10-21T14:35:07.121Z,19.30
2017-10-21T14:37:34.682Z,19.30
2017-10-21T14:40:02.237Z,19.20
2017-10-21T14:42:29.791Z,19.00
2017-10-21T14:44:58.097Z,18.80
2017-10-21T14:47:25.661Z,18.80
2017-10-21T14:49:53.965Z,18.70
2017-10-21T14:52:22.301Z,18.70
2017-10-21T14:54:49.833Z,18.70
2017-10-21T14:57:17.394Z,18.70
2017-10-21T14:59:44.931Z,18.60
2017-10-21T15:02:13.246Z,18.50
2017-10-21T15:04:40.833Z,18.40
2017-10-21T15:07:08.369Z,18.40
2017-10-21T15:09:35.922Z,18.50
2017-10-21T15:12:03.486Z,18.50
2017-10-21T15:14:31.048Z,18.40
2017-10-21T15:16:58.594Z,18.40
2017-10-21T15:19:26.140Z,18.50
2017-10-21T15:21:53.673Z,18.50
2017-10-21T15:24:21.238Z,18.50
2017-10-21T15:26:49.571Z,18.10
2017-10-21T15:29:17.121Z,18.10
2017-10-21T15:31:44.681Z,18.30
2017-10-21T15:34:12.207Z,18.00
2017-10-21T15:36:40.526Z,18.00
2017-10-21T15:39:08.056Z,17.90
2017-10-21T15:41:35.614Z,17.90
2017-10-21T15:44:03.143Z,17.80
2017-10-21T15:46:31.459Z,17.60
2017-10-21T15:48:58.985Z,17.60
2017-10-21T15:51:27.328Z,17.60
2017-10-21T15:53:54.861Z,17.60
2017-10-21T15:56:22.393Z,17.70
2017-10-21T15:58:50.720Z,17.60
2017-10-21T16:01:18.269Z,17.60
2017-10-21T16:03:45.845Z,17.60
2017-10-21T16:06:13.386Z,17.30
2017-10-21T16:08:40.938Z,17.20
2017-10-21T16:11:08.473Z,17.10
2017-10-21T16:13:36.816Z,16.90
2017-10-21T16:16:04.361Z,16.90
2017-10-21T16:18:32.318Z,16.80
2017-10-21T16:20:59.857Z,16.80
2017-10-21T16:23:27.405Z,16.80
2017-10-21T16:25:55.696Z,16.80
2017-10-21T16:28:23.229Z,16.70
2017-10-21T16:30:51.548Z,16.70
2017-10-21T16:33:19.076Z,16.70
2017-10-21T16:35:47.402Z,16.00
2017-10-21T16:38:14.939Z,15.90
2017-10-21T16:40:42.499Z,15.60
2017-10-21T16:43:10.043Z,15.30
2017-10-21T16:45:37.619Z,15.10
2017-10-21T16:48:05.192Z,15.00
2017-10-21T16:50:32.737Z,14.80
2017-10-21T16:53:00.306Z,14.60
2017-10-21T16:55:27.853Z,14.60
2017-10-21T16:57:56.509Z,14.20
2017-10-21T17:00:24.854Z,14.10
2017-10-21T17:02:52.385Z,14.00
2017-10-21T17:05:19.918Z,14.00
2017-10-21T17:07:47.485Z,13.80
2017-10-21T17:10:15.778Z,13.60
2017-10-21T17:12:43.350Z,13.60
2017-10-21T17:15:10.890Z,13.40
2017-10-21T17:17:38.455Z,13.30
2017-10-21T17:20:06.022Z,12.90
2017-10-21T17:22:33.600Z,12.70
2017-10-21T17:25:01.161Z,12.60
2017-10-21T17:27:29.466Z,12.40
2017-10-21T17:29:57.016Z,12.30
2017-10-21T17:32:25.324Z,12.20
2017-10-21T17:34:52.908Z,12.20
2017-10-21T17:37:20.621Z,12.10
2017-10-21T17:39:48.207Z,12.00
2017-10-21T17:42:15.781Z,12.00
2017-10-21T17:44:43.352Z,12.00
2017-10-21T17:47:10.914Z,12.00
2017-10-21T17:49:38.469Z,12.00
2017-10-21T17:52:06.012Z,12.00
2017-10-21T17:54:33.551Z,11.90
2017-10-21T17:57:01.103Z,11.90
2017-10-21T17:59:29.426Z,11.80
2017-10-21T18:01:56.978Z,11.80
2017-10-21T18:04:24.526Z,11.90
2017-10-21T18:06:52.087Z,11.90
2017-10-21T18:09:19.648Z,11.80
2017-10-21T18:11:47.204Z,11.80
2017-10-21T18:14:14.756Z,11.90
2017-10-21T18:16:43.085Z,11.90
2017-10-21T18:19:10.712Z,11.90
2017-10-21T18:21:38.261Z,11.90
2017-10-21T18:24:05.806Z,12.00
2017-10-21T18:26:33.363Z,12.00
2017-10-21T18:29:01.670Z,11.90
2017-10-21T18:31:29.213Z,11.80
2017-10-21T18:33:56.773Z,11.80
2017-10-21T18:36:24.334Z,11.80
2017-10-21T18:38:51.870Z,11.70
2017-10-21T18:41:20.198Z,11.40
2017-10-21T18:43:47.753Z,11.40
2017-10-21T18:46:15.352Z,11.40
2017-10-21T18:48:42.914Z,11.30
2017-10-21T18:51:10.449Z,11.30
2017-10-21T18:53:37.986Z,11.20
2017-10-21T18:56:05.546Z,11.20
2017-10-21T18:58:33.094Z,11.10
2017-10-21T19:01:00.633Z,11.10
2017-10-21T19:03:28.944Z,11.00
2017-10-21T19:05:56.517Z,11.00
2017-10-21T19:08:24.104Z,11.00
2017-10-21T19:10:51.671Z,11.00
2017-10-21T19:13:19.205Z,10.80
2017-10-21T19:15:46.757Z,10.70
2017-10-21T19:18:14.333Z,10.70
2017-10-21T19:20:41.862Z,10.60
2017-10-21T19:23:09.432Z,10.60
2017-10-21T19:25:36.957Z,10.40
2017-10-21T19:28:04.506Z,10.50
2017-10-21T19:30:32.794Z,10.60
2017-10-21T19:33:00.358Z,10.50
2017-10-21T19:35:27.920Z,10.50
2017-10-21T19:37:55.482Z,10.40
2017-10-21T19:40:23.008Z,10.40
2017-10-21T19:42:50.568Z,10.30
2017-10-21T19:45:18.129Z,10.30
2017-10-21T19:47:45.656Z,10.20
2017-10-21T19:50:13.244Z,10.20
2017-10-21T19:52:40.776Z,10.20
2017-10-21T19:55:08.323Z,10.30
2017-10-21T19:57:35.863Z,10.20
2017-10-21T20:00:03.414Z,10.10
2017-10-21T20:02:32.147Z,10.20
2017-10-21T20:04:59.690Z,10.10
2017-10-21T20:07:27.242Z,10.10
2017-10-21T20:09:54.769Z,10.20
2017-10-21T20:12:23.138Z,10.00
2017-10-21T20:14:51.456Z,10.00
2017-10-21T20:17:19.015Z,10.00
2017-10-21T20:19:46.542Z,10.00
2017-10-21T20:22:14.877Z,9.90
2017-10-21T20:24:42.394Z,9.90
2017-10-21T20:27:09.934Z,9.80
2017-10-21T20:29:38.248Z,9.80
2017-10-21T20:32:07.214Z,9.80
2017-10-21T20:34:35.522Z,9.90
2017-10-21T20:37:03.098Z,9.90
2017-10-21T20:39:30.807Z,9.90
2017-10-21T20:41:58.366Z,9.70
2017-10-21T20:44:25.928Z,9.70
2017-10-21T20:46:54.189Z,9.80
2017-10-21T20:49:22.524Z,9.70
2017-10-21T20:51:50.054Z,9.70
2017-10-21T20:54:18.382Z,9.80
2017-10-21T20:56:47.873Z,9.70
2017-10-21T20:59:15.440Z,9.70
2017-10-21T21:01:42.966Z,9.80
2017-10-21T21:04:10.702Z,9.60
2017-10-21T21:06:38.243Z,9.60
2017-10-21T21:09:06.557Z,9.60
2017-10-21T21:11:34.108Z,9.60
2017-10-21T21:14:01.621Z,9.70
2017-10-21T21:16:29.248Z,9.70
2017-10-21T21:18:56.797Z,9.80
2017-10-21T21:21:25.508Z,9.90
2017-10-21T21:23:53.830Z,9.70
2017-10-21T21:26:21.473Z,9.60
2017-10-21T21:28:49.062Z,9.70
2017-10-21T21:31:16.602Z,9.60
2017-10-21T21:33:44.154Z,9.60
2017-10-21T21:36:12.562Z,9.70
2017-10-21T21:38:40.159Z,9.60
2017-10-21T21:41:07.713Z,9.70
2017-10-21T21:43:35.240Z,9.70
2017-10-21T21:46:02.795Z,9.80
2017-10-21T21:48:30.352Z,9.70
2017-10-21T21:50:57.894Z,9.70
2017-10-21T21:53:25.424Z,9.60
2017-10-21T21:55:53.001Z,9.60
2017-10-21T21:58:21.318Z,9.60
2017-10-21T22:00:49.710Z,9.60
2017-10-21T22:03:17.261Z,9.70
2017-10-21T22:05:44.781Z,9.70
2017-10-21T22:08:12.342Z,9.70
2017-10-21T22:10:39.874Z,9.70
2017-10-21T22:13:07.418Z,9.80
2017-10-21T22:15:34.960Z,9.80
2017-10-21T22:18:02.537Z,9.80
2017-10-21T22:20:31.323Z,9.80
2017-10-21T22:22:58.853Z,9.70
2017-10-21T22:25:26.428Z,9.80
2017-10-21T22:27:53.996Z,9.80
2017-10-21T22:30:21.585Z,9.90
2017-10-21T22:32:49.110Z,9.90
2017-10-21T22:35:16.650Z,9.80
2017-10-21T22:37:44.200Z,9.70
2017-10-21T22:40:11.753Z,9.70
2017-10-21T22:42:39.287Z,9.70
2017-10-21T22:45:07.612Z,9.60
2017-10-21T22:47:35.153Z,9.60
2017-10-21T22:50:02.687Z,9.70
2017-10-21T22:52:31.023Z,9.60
2017-10-21T22:54:58.551Z,9.60
2017-10-21T22:57:26.096Z,9.60
2017-10-21T22:59:53.633Z,9.60
2017-10-21T23:02:21.936Z,9.60
2017-10-21T23:04:49.482Z,9.60
2017-10-21T23:07:17.030Z,9.60
2017-10-21T23:09:45.321Z,9.50
2017-10-21T23:12:12.845Z,9.50
2017-10-21T23:14:40.381Z,9.60
2017-10-21T23:17:07.919Z,9.50
2017-10-21T23:19:35.471Z,9.50
2017-10-21T23:22:03.026Z,9.50
2017-10-21T23:24:30.572Z,9.60
2017-10-21T23:26:58.853Z,9.70
2017-10-21T23:29:27.167Z,9.70
2017-10-21T23:31:54.697Z,9.60
2017-10-21T23:34:22.255Z,9.70
2017-10-21T23:36:49.783Z,9.70
2017-10-21T23:39:17.334Z,9.60
2017-10-21T23:41:44.877Z,9.70
2017-10-21T23:44:12.390Z,9.60
2017-10-21T23:46:39.919Z,9.60
2017-10-21T23:49:07.855Z,9.70
2017-10-21T23:51:35.384Z,9.70
2017-10-21T23:54:02.904Z,9.70
2017-10-21T23:56:31.217Z,9.70
2017-10-21T23:58:58.740Z,9.80
